createdAt,value
2023-05-13T00:01:21.758Z,98.80
2023-05-13T00:04:23.317Z,99.10
2023-05-13T00:07:25.861Z,98.70
2023-05-13T00:10:27.486Z,98.70
2023-05-13T00:13:29.096Z,98.80
2023-05-13T00:16:30.793Z,99.40
2023-05-13T00:19:32.626Z,98.70
2023-05-13T00:22:34.212Z,99.10
2023-05-13T00:25:37.433Z,98.80
2023-05-13T00:28:39.048Z,99.50
2023-05-13T00:31:40.675Z,98.90
2023-05-13T00:34:42.281Z,99.10
2023-05-13T00:37:44.388Z,99.10
2023-05-13T00:40:47.007Z,99.50
2023-05-13T00:43:48.878Z,99.20
2023-05-13T00:46:50.541Z,99.00
2023-05-13T00:49:52.192Z,99.10
2023-05-13T00:52:53.923Z,99.20
2023-05-13T00:55:55.639Z,99.00
2023-05-13T00:58:57.225Z,99.20
2023-05-13T01:02:01.892Z,99.00
2023-05-13T01:05:12.366Z,98.50
2023-05-13T01:08:52.286Z,98.50
2023-05-13T01:11:55.566Z,98.60
2023-05-13T01:15:05.825Z,99.00
2023-05-13T01:18:12.113Z,98.50
2023-05-13T01:21:13.882Z,99.60
2023-05-13T01:24:15.539Z,99.50
2023-05-13T01:27:17.589Z,99.40
2023-05-13T01:30:20.342Z,99.40
2023-05-13T01:33:22.483Z,99.30
2023-05-13T01:36:24.487Z,99.00
2023-05-13T01:39:26.680Z,99.20
2023-05-13T01:42:30.189Z,99.20
2023-05-13T01:45:33.347Z,99.10
2023-05-13T01:48:34.927Z,99.30
2023-05-13T01:51:37.833Z,99.80
2023-05-13T01:54:39.444Z,99.40
2023-05-13T01:57:41.016Z,99.40
2023-05-13T02:00:42.816Z,99.30
2023-05-13T02:03:45.015Z,99.40
2023-05-13T02:06:46.678Z,99.40
2023-05-13T02:09:48.251Z,99.40
2023-05-13T02:12:49.756Z,99.40
2023-05-13T02:15:51.334Z,99.40
2023-05-13T02:18:52.966Z,99.40
2023-05-13T02:21:54.517Z,99.40
2023-05-13T02:24:56.130Z,99.40
2023-05-13T02:27:58.027Z,99.20
2023-05-13T02:30:59.783Z,99.40
2023-05-13T02:34:01.318Z,99.30
2023-05-13T02:37:03.984Z,99.40
2023-05-13T02:40:06.181Z,99.30
2023-05-13T02:43:07.846Z,99.10
2023-05-13T02:46:09.449Z,99.40
2023-05-13T02:49:11.541Z,99.50
2023-05-13T02:52:13.168Z,99.50
2023-05-13T02:55:14.838Z,99.50
2023-05-13T02:58:16.954Z,99.50
2023-05-13T03:01:18.535Z,99.50
2023-05-13T03:04:20.124Z,99.50
2023-05-13T03:07:22.054Z,99.80
2023-05-13T03:10:23.671Z,99.60
2023-05-13T03:13:25.697Z,99.60
2023-05-13T03:16:27.278Z,99.00
2023-05-13T03:19:28.944Z,99.50
2023-05-13T03:22:30.567Z,99.60
2023-05-13T03:25:32.097Z,99.50
2023-05-13T03:28:33.626Z,99.50
2023-05-13T03:31:35.282Z,99.50
2023-05-13T03:34:37.781Z,99.50
2023-05-13T03:37:39.450Z,99.50
2023-05-13T03:40:41.038Z,99.30
2023-05-13T03:43:42.830Z,99.20
2023-05-13T03:46:44.698Z,99.10
2023-05-13T03:49:47.907Z,99.20
2023-05-13T03:52:49.476Z,99.30
2023-05-13T03:55:51.123Z,99.60
2023-05-13T03:58:52.828Z,99.30
2023-05-13T04:01:54.419Z,99.30
2023-05-13T04:04:56.353Z,99.50
2023-05-13T04:07:57.973Z,99.50
2023-05-13T04:10:59.563Z,99.40
2023-05-13T04:14:01.242Z,99.30
2023-05-13T04:17:03.058Z,99.60
2023-05-13T04:20:05.198Z,99.50
2023-05-13T04:23:07.059Z,99.30
2023-05-13T04:26:08.715Z,99.40
2023-05-13T04:29:10.291Z,99.10
2023-05-13T04:32:15.749Z,99.20
2023-05-13T04:35:17.461Z,99.20
2023-05-13T04:38:19.118Z,99.00
2023-05-13T04:41:21.131Z,99.10
2023-05-13T04:44:22.710Z,99.20
2023-05-13T04:47:24.334Z,99.40
2023-05-13T04:50:26.158Z,98.90
2023-05-13T04:53:28.293Z,99.00
2023-05-13T04:56:29.871Z,98.90
2023-05-13T04:59:31.834Z,98.90
2023-05-13T05:02:33.411Z,98.90
2023-05-13T05:05:35.240Z,98.80
2023-05-13T05:08:36.788Z,99.10
2023-05-13T05:11:38.700Z,98.90
2023-05-13T05:14:40.551Z,98.80
2023-05-13T05:17:45.519Z,98.80
2023-05-13T05:20:47.183Z,98.80
2023-05-13T05:23:48.985Z,98.60
2023-05-13T05:26:50.545Z,98.60
2023-05-13T05:29:52.427Z,98.40
2023-05-13T05:32:54.006Z,97.80
2023-05-13T05:35:55.580Z,98.70
2023-05-13T05:38:57.153Z,98.20
2023-05-13T05:41:58.689Z,98.00
2023-05-13T05:45:00.305Z,98.10
2023-05-13T05:48:01.960Z,97.80
2023-05-13T05:51:03.759Z,97.80
2023-05-13T05:54:05.342Z,97.60
2023-05-13T05:57:06.923Z,97.70
2023-05-13T06:00:08.946Z,97.50
2023-05-13T06:03:10.785Z,97.20
2023-05-13T06:06:12.601Z,97.30
2023-05-13T06:09:14.136Z,97.50
2023-05-13T06:12:15.762Z,97.60
2023-05-13T06:15:17.524Z,97.20
2023-05-13T06:18:19.123Z,97.00
2023-05-13T06:21:20.849Z,96.60
2023-05-13T06:24:22.452Z,96.40
2023-05-13T06:27:24.309Z,96.40
2023-05-13T06:30:25.849Z,96.20
2023-05-13T06:33:27.484Z,96.10
2023-05-13T06:36:29.066Z,95.90
2023-05-13T06:39:30.614Z,95.90
2023-05-13T06:42:32.166Z,95.60
2023-05-13T06:45:33.709Z,95.70
2023-05-13T06:48:35.247Z,95.60
2023-05-13T06:51:36.807Z,95.40
2023-05-13T06:54:38.410Z,95.40
2023-05-13T06:57:43.255Z,95.30
2023-05-13T07:00:46.589Z,95.10
2023-05-13T07:03:48.839Z,95.30
2023-05-13T07:06:51.623Z,95.00
2023-05-13T07:09:53.571Z,94.80
2023-05-13T07:12:55.401Z,95.20
2023-05-13T07:15:57.532Z,94.60
2023-05-13T07:18:59.104Z,94.80
2023-05-13T07:22:00.706Z,94.40
2023-05-13T07:25:02.339Z,94.20
2023-05-13T07:28:04.335Z,94.10
2023-05-13T07:31:06.010Z,94.20
2023-05-13T07:34:07.712Z,94.10
2023-05-13T07:37:09.458Z,93.90
2023-05-13T07:40:11.331Z,94.10
2023-05-13T07:43:13.484Z,94.30
2023-05-13T07:46:15.358Z,94.40
2023-05-13T07:49:16.921Z,94.60
2023-05-13T07:52:18.525Z,94.00
2023-05-13T07:55:20.587Z,93.60
2023-05-13T07:58:22.411Z,92.90
2023-05-13T08:01:24.079Z,92.80
2023-05-13T08:04:25.934Z,92.80
2023-05-13T08:07:28.363Z,92.70
2023-05-13T08:10:30.464Z,92.60
2023-05-13T08:13:32.077Z,92.50
2023-05-13T08:16:37.085Z,92.20
2023-05-13T08:19:38.680Z,92.30
2023-05-13T08:22:40.205Z,92.00
2023-05-13T08:25:41.842Z,91.90
2023-05-13T08:28:43.487Z,91.90
2023-05-13T08:31:45.195Z,91.70
2023-05-13T08:34:46.797Z,91.50
2023-05-13T08:37:48.343Z,91.30
2023-05-13T08:40:49.900Z,91.00
2023-05-13T08:43:53.410Z,91.10
2023-05-13T08:47:40.481Z,90.60
2023-05-13T08:50:44.002Z,90.20
2023-05-13T08:53:46.383Z,91.00
2023-05-13T08:56:47.975Z,90.90
2023-05-13T08:59:49.507Z,90.40
2023-05-13T09:02:51.682Z,90.20
2023-05-13T09:05:53.350Z,90.00
2023-05-13T09:08:56.024Z,90.10
2023-05-13T09:11:57.582Z,90.30
2023-05-13T09:14:59.123Z,89.60
2023-05-13T09:18:06.075Z,88.60
2023-05-13T09:21:29.379Z,87.40
2023-05-13T09:24:30.942Z,88.80
2023-05-13T09:27:49.026Z,87.90
2023-05-13T09:30:54.911Z,85.40
2023-05-13T09:33:56.712Z,86.20
2023-05-13T09:36:59.422Z,86.30
2023-05-13T09:40:01.147Z,87.50
2023-05-13T09:43:02.785Z,86.00
2023-05-13T09:46:05.299Z,85.30
2023-05-13T09:49:07.045Z,83.90
2023-05-13T09:52:11.485Z,83.00
2023-05-13T09:55:13.041Z,83.60
2023-05-13T09:58:14.859Z,82.80
2023-05-13T10:01:16.744Z,83.40
2023-05-13T10:04:19.232Z,83.20
2023-05-13T10:07:24.557Z,82.90
2023-05-13T10:10:28.157Z,82.80
2023-05-13T10:13:31.833Z,82.60
2023-05-13T10:16:33.529Z,81.00
2023-05-13T10:19:36.439Z,82.00
2023-05-13T10:22:39.076Z,81.30
2023-05-13T10:25:43.030Z,81.10
2023-05-13T10:28:45.762Z,79.70
2023-05-13T10:31:48.741Z,80.40
2023-05-13T10:34:55.405Z,79.30
2023-05-13T10:38:24.296Z,78.80
2023-05-13T10:41:44.632Z,81.00
2023-05-13T10:44:46.324Z,78.10
2023-05-13T10:47:51.535Z,79.20
2023-05-13T10:51:01.664Z,78.60
2023-05-13T10:54:19.198Z,79.00
2023-05-13T10:57:28.677Z,80.20
2023-05-13T11:00:34.308Z,77.20
2023-05-13T11:03:36.399Z,78.60
2023-05-13T11:06:40.725Z,78.30
2023-05-13T11:09:49.700Z,77.00
2023-05-13T11:13:17.414Z,76.50
2023-05-13T11:16:19.488Z,77.30
2023-05-13T11:19:36.023Z,75.50
2023-05-13T11:22:37.916Z,73.00
2023-05-13T11:25:39.539Z,75.90
2023-05-13T11:29:05.850Z,75.40
2023-05-13T11:32:07.551Z,72.90
2023-05-13T11:35:09.981Z,74.60
2023-05-13T11:38:24.540Z,74.20
2023-05-13T11:41:26.249Z,74.20
2023-05-13T11:44:28.376Z,73.30
2023-05-13T11:47:29.962Z,73.50
2023-05-13T11:50:32.312Z,74.80
2023-05-13T11:53:33.993Z,73.40
2023-05-13T11:56:35.537Z,73.00
2023-05-13T11:59:47.678Z,71.20
2023-05-13T12:02:50.315Z,71.70
2023-05-13T12:06:01.542Z,72.70
2023-05-13T12:09:07.125Z,71.50
2023-05-13T12:12:09.650Z,71.30
2023-05-13T12:15:17.046Z,69.90
2023-05-13T12:18:18.745Z,70.90
2023-05-13T12:21:21.318Z,72.00
2023-05-13T12:24:23.322Z,71.70
2023-05-13T12:27:24.934Z,71.90
2023-05-13T12:30:33.021Z,71.30
2023-05-13T12:33:42.395Z,72.10
2023-05-13T12:36:43.956Z,70.50
2023-05-13T12:39:54.418Z,69.50
2023-05-13T12:43:03.003Z,70.50
2023-05-13T12:46:06.513Z,70.50
2023-05-13T12:49:09.381Z,69.10
2023-05-13T12:52:10.981Z,68.70
2023-05-13T12:55:24.728Z,67.20
2023-05-13T12:58:26.393Z,68.00
2023-05-13T13:01:27.951Z,68.20
2023-05-13T13:04:29.850Z,67.60
2023-05-13T13:07:38.010Z,67.20
2023-05-13T13:10:39.602Z,66.80
2023-05-13T13:13:41.526Z,66.20
2023-05-13T13:16:43.220Z,65.20
2023-05-13T13:19:44.771Z,65.00
2023-05-13T13:22:46.331Z,64.00
2023-05-13T13:25:47.956Z,65.60
2023-05-13T13:28:49.525Z,63.30
2023-05-13T13:31:52.077Z,62.90
2023-05-13T13:34:53.752Z,63.90
2023-05-13T13:37:55.941Z,64.90
2023-05-13T13:40:57.612Z,66.60
2023-05-13T13:43:59.147Z,65.90
2023-05-13T13:47:00.756Z,65.90
2023-05-13T13:50:02.314Z,64.50
2023-05-13T13:53:03.919Z,62.80
2023-05-13T13:56:05.905Z,62.00
2023-05-13T13:59:07.481Z,63.50
2023-05-13T14:02:09.444Z,63.70
2023-05-13T14:05:12.840Z,65.40
2023-05-13T14:08:14.409Z,64.70
2023-05-13T14:11:16.585Z,65.40
2023-05-13T14:14:18.817Z,65.20
2023-05-13T14:17:20.546Z,65.40
2023-05-13T14:20:22.598Z,65.20
2023-05-13T14:23:24.489Z,65.10
2023-05-13T14:26:26.288Z,64.40
2023-05-13T14:29:27.957Z,65.20
2023-05-13T14:32:29.532Z,65.70
2023-05-13T14:35:31.084Z,65.40
2023-05-13T14:38:32.627Z,66.10
2023-05-13T14:41:34.239Z,66.10
2023-05-13T14:44:36.515Z,66.70
2023-05-13T14:47:38.259Z,66.40
2023-05-13T14:50:41.843Z,64.00
2023-05-13T14:53:43.634Z,62.60
2023-05-13T14:56:45.627Z,61.50
2023-05-13T14:59:47.224Z,63.20
2023-05-13T15:02:48.838Z,63.40
2023-05-13T15:05:51.544Z,65.90
2023-05-13T15:08:53.576Z,66.00
2023-05-13T15:11:55.251Z,66.60
2023-05-13T15:14:58.103Z,67.30
2023-05-13T15:17:59.766Z,65.90
2023-05-13T15:21:01.436Z,66.40
2023-05-13T15:24:03.096Z,66.90
2023-05-13T15:27:05.965Z,66.10
2023-05-13T15:30:07.943Z,67.30
2023-05-13T15:33:09.681Z,67.70
2023-05-13T15:36:11.321Z,69.50
2023-05-13T15:39:13.086Z,68.30
2023-05-13T15:42:14.656Z,68.90
2023-05-13T15:45:16.274Z,69.50
2023-05-13T15:48:17.929Z,69.50
2023-05-13T15:51:20.525Z,69.50
2023-05-13T15:54:22.096Z,70.60
2023-05-13T15:57:23.994Z,69.40
2023-05-13T16:00:25.820Z,68.80
2023-05-13T16:03:27.422Z,70.40
2023-05-13T16:06:29.004Z,70.10
2023-05-13T16:09:30.537Z,70.90
2023-05-13T16:12:32.133Z,70.50
2023-05-13T16:15:34.066Z,71.90
2023-05-13T16:18:35.654Z,71.00
2023-05-13T16:21:40.763Z,71.90
2023-05-13T16:24:42.282Z,72.80
2023-05-13T16:27:43.967Z,71.60
2023-05-13T16:30:46.061Z,71.50
2023-05-13T16:33:47.845Z,71.30
2023-05-13T16:36:49.428Z,71.20
2023-05-13T16:39:52.169Z,72.10
2023-05-13T16:42:54.714Z,71.90
2023-05-13T16:45:57.952Z,71.20
2023-05-13T16:49:00.304Z,70.40
2023-05-13T16:52:08.340Z,71.10
2023-05-13T16:55:09.960Z,68.40
2023-05-13T16:58:11.560Z,68.50
2023-05-13T17:01:13.492Z,71.30
2023-05-13T17:04:16.053Z,69.60
2023-05-13T17:07:17.665Z,70.30
2023-05-13T17:10:19.261Z,69.00
2023-05-13T17:13:21.544Z,70.10
2023-05-13T17:16:23.258Z,70.60
2023-05-13T17:19:24.917Z,71.10
2023-05-13T17:22:26.532Z,71.30
2023-05-13T17:25:28.095Z,72.30
2023-05-13T17:28:29.677Z,71.70
2023-05-13T17:31:31.314Z,71.70
2023-05-13T17:34:32.935Z,72.10
2023-05-13T17:37:34.544Z,72.10
2023-05-13T17:40:36.468Z,73.80
2023-05-13T17:43:38.125Z,71.70
2023-05-13T17:46:39.875Z,72.20
2023-05-13T17:49:41.433Z,74.00
2023-05-13T17:52:42.997Z,72.50
2023-05-13T17:55:44.694Z,72.60
2023-05-13T17:58:46.223Z,72.70
2023-05-13T18:01:47.866Z,73.20
2023-05-13T18:04:49.735Z,73.00
2023-05-13T18:07:51.297Z,72.60
2023-05-13T18:10:53.144Z,74.10
2023-05-13T18:13:54.764Z,74.40
2023-05-13T18:16:56.371Z,75.80
2023-05-13T18:19:57.914Z,74.90
2023-05-13T18:22:59.919Z,74.60
2023-05-13T18:26:01.908Z,76.10
2023-05-13T18:29:03.500Z,76.40
2023-05-13T18:32:05.511Z,75.90
2023-05-13T18:35:07.667Z,76.20
2023-05-13T18:38:09.211Z,75.80
2023-05-13T18:41:10.862Z,76.60
2023-05-13T18:44:12.408Z,78.90
2023-05-13T18:47:13.968Z,77.00
2023-05-13T18:50:16.059Z,76.30
2023-05-13T18:53:17.839Z,77.60
2023-05-13T18:56:19.480Z,78.40
2023-05-13T18:59:21.405Z,78.60
2023-05-13T19:02:23.200Z,78.70
2023-05-13T19:05:24.908Z,79.00
2023-05-13T19:08:26.648Z,79.50
2023-05-13T19:11:28.176Z,79.70
2023-05-13T19:14:29.800Z,80.20
2023-05-13T19:17:31.546Z,79.90
2023-05-13T19:20:33.193Z,80.20
2023-05-13T19:23:34.764Z,80.10
2023-05-13T19:26:36.469Z,81.90
2023-05-13T19:29:37.984Z,81.20
2023-05-13T19:32:43.501Z,80.80
2023-05-13T19:35:45.368Z,80.90
2023-05-13T19:38:46.958Z,80.90
2023-05-13T19:41:48.576Z,82.20
2023-05-13T19:44:50.436Z,81.00
2023-05-13T19:47:52.101Z,82.00
2023-05-13T19:50:53.720Z,82.30
2023-05-13T19:53:55.344Z,82.40
2023-05-13T19:56:56.914Z,82.70
2023-05-13T19:59:59.376Z,82.50
2023-05-13T20:03:01.016Z,83.80
2023-05-13T20:06:02.694Z,83.10
2023-05-13T20:09:04.320Z,84.40
2023-05-13T20:12:05.926Z,83.40
2023-05-13T20:15:07.775Z,83.60
2023-05-13T20:18:09.616Z,83.50
2023-05-13T20:21:11.237Z,83.30
2023-05-13T20:24:12.850Z,83.60
2023-05-13T20:27:15.880Z,84.00
2023-05-13T20:30:18.376Z,83.70
2023-05-13T20:33:20.119Z,84.10
2023-05-13T20:36:21.996Z,84.30
2023-05-13T20:39:24.002Z,84.40
2023-05-13T20:42:26.622Z,84.50
2023-05-13T20:45:28.535Z,84.60
2023-05-13T20:48:32.032Z,85.10
2023-05-13T20:51:34.744Z,85.40
2023-05-13T20:54:37.001Z,85.00
2023-05-13T20:57:38.524Z,85.60
2023-05-13T21:00:40.059Z,85.80
2023-05-13T21:03:41.690Z,86.00
2023-05-13T21:06:44.253Z,85.70
2023-05-13T21:09:45.908Z,86.20
2023-05-13T21:12:48.025Z,86.50
2023-05-13T21:15:51.832Z,87.40
2023-05-13T21:18:53.420Z,86.20
2023-05-13T21:21:55.302Z,86.50
2023-05-13T21:24:57.405Z,85.20
2023-05-13T21:27:58.927Z,86.60
2023-05-13T21:31:00.743Z,87.00
2023-05-13T21:34:02.322Z,87.00
2023-05-13T21:37:03.850Z,87.00
2023-05-13T21:40:06.773Z,87.20
2023-05-13T21:43:08.291Z,86.50
2023-05-13T21:46:09.841Z,87.70
2023-05-13T21:49:14.557Z,87.10
2023-05-13T21:52:16.245Z,87.00
2023-05-13T21:55:17.853Z,87.00
2023-05-13T21:58:20.689Z,86.70
2023-05-13T22:01:24.329Z,87.00
2023-05-13T22:04:26.737Z,86.90
2023-05-13T22:07:29.008Z,87.40
2023-05-13T22:10:30.742Z,86.00
2023-05-13T22:13:32.326Z,86.90
2023-05-13T22:16:34.031Z,86.80
2023-05-13T22:19:35.908Z,87.20
2023-05-13T22:22:37.529Z,87.30
2023-05-13T22:25:39.123Z,87.80
2023-05-13T22:28:40.739Z,87.90
2023-05-13T22:31:42.339Z,89.50
2023-05-13T22:34:44.130Z,89.20
2023-05-13T22:37:45.739Z,88.50
2023-05-13T22:40:47.302Z,88.60
2023-05-13T22:43:49.349Z,89.10
2023-05-13T22:46:52.688Z,89.00
2023-05-13T22:49:54.436Z,90.00
2023-05-13T22:52:56.415Z,89.20
2023-05-13T22:55:58.004Z,90.30
2023-05-13T22:58:59.531Z,90.00
2023-05-13T23:02:01.190Z,90.10
2023-05-13T23:05:02.804Z,90.00
2023-05-13T23:08:04.600Z,90.30
2023-05-13T23:11:06.321Z,90.10
2023-05-13T23:14:08.774Z,90.20
2023-05-13T23:17:10.337Z,90.50
2023-05-13T23:20:12.204Z,90.30
2023-05-13T23:23:13.721Z,90.30
2023-05-13T23:26:15.448Z,90.40
2023-05-13T23:29:17.076Z,90.40
2023-05-13T23:32:19.120Z,90.50
2023-05-13T23:35:20.665Z,90.50
2023-05-13T23:38:22.657Z,90.60
2023-05-13T23:41:24.249Z,90.70
2023-05-13T23:44:25.874Z,90.80
2023-05-13T23:47:27.667Z,91.20
2023-05-13T23:50:29.225Z,90.90
2023-05-13T23:53:30.771Z,91.00
2023-05-13T23:56:32.353Z,91.20
2023-05-13T23:59:33.895Z,91.00
